AirNav   Air Wisconsin Up To $57,000 Bonus
 
 1486 users online  

0CA4 Shepherd Farm Airport
Santa Ynez, California, USA

GOING TO SANTA YNEZ?


FAA INFORMATION EFFECTIVE 02 DECEMBER 2021

Location

FAA Identifier: 0CA4
Lat/Long: 34-37-19.9520N 120-03-55.5210W
34-37.332533N 120-03.925350W
34.6222089,-120.0654225
(estimated)
Elevation: 660 ft. / 201 m (estimated)
Variation: 14E (1985)
From city: 1 mile NE of SANTA YNEZ, CA
Time zone: UTC -8 (UTC -7 during Daylight Saving Time)
Zip code: 93460

Airport Operations

Airport use: Private use. Permission required prior to landing
Control tower: no
ARTCC: LOS ANGELES CENTER
FSS: HAWTHORNE FLIGHT SERVICE STATION
Attendance: UNATNDD
Wind indicator: yes
Segmented circle: no

Airport Communications

UNICOM: 122.8
WX AWOS-3 at IZA (1.1 nm SW): 118.075 (805-686-8903)
WX ASOS at SBA (16 nm SE): PHONE 805-681-0583

Nearby radio navigation aids

VOR radial/distance  VOR name  Freq  Var
GVOr357/5.6GAVIOTA VORTAC113.8016E
RZSr281/16.0SAN MARCUS VORTAC114.9014E
FLWr183/29.9FELLOWS VOR/DME117.5016E
GLJr115/(30.0)GUADALUPE VOR111.0016E

Airport Services

Airframe service: NONE
Powerplant service: NONE

Runway Information

Runway 6/24

Dimensions: 3600 x 50 ft. / 1097 x 15 m
Surface: treated
RUNWAY 6  RUNWAY 24
Traffic pattern: leftright

Airport Ownership and Management from official FAA records

Ownership: Privately-owned
Owner: GERALDINE B. SHEPHERD
1400 HWY 154
SANTA YNEZ, CA 93460
Phone 805-688-3120
Manager: GERALDINE B. SHEPHERD
P.O. BOX 30
SANTA YNEZ, CA 93460
Phone 805-688-3120

Additional Remarks

2 PERCENT DOWNHILL SLOPE TO W.
FOR CD CTC LOS ANGELES ARTCC AT 661-575-2079.

Instrument Procedures

There are no published instrument procedures at 0CA4.

Some nearby airports with instrument procedures:

KIZA - Santa Ynez Airport (1 nm SW)
KSBA - Santa Barbara Municipal Airport (16 nm SE)
KLPC - Lompoc Airport (20 nm W)
KSMX - Santa Maria Public Airport/Capt G Allan Hancock Field (26 nm NW)
KVBG - Vandenberg Space Force Base (27 nm W)
 
Loc | Ops | Rwys | IFR | FBO | Links
Com | Nav | Svcs | Stats | Notes
Area around 0CA4 (Shepherd Farm Airport)
 
Road maps at: MapQuest Bing Google
 
Aerial photo
No photo
 
Sectional chart

 
Airport distance calculator
Flying to Shepherd Farm Airport? Find the distance to fly.

From to 0CA4

Sunrise and sunset
Times for 06-Dec-2021
 Local
(UTC-8)
 Zulu
(UTC)
Morning civil twilight06:2714:27
Sunrise06:5414:54
Sunset16:4800:48
Evening civil twilight17:1601:16

Current date and time
Zulu (UTC)  06-Dec-2021 18:28:18
Local (UTC-8)  06-Dec-2021 10:28:18
 
METAR
KIZA 061815Z AUTO 26004KT 7SM CLR 13/02 A3012 RMK AO2
KSBA 
16nm SE 
061753Z 11005KT 5SM BR BKN006 14/12 A3008 RMK AO2 SLP186 T01440122 10144 20044 51010
KLPC 
20nm W 
061756Z AUTO 00000KT 10SM CLR 12/08 A3012 RMK AO2 SLP202 T01170078 10117 20028 53008
TAF
KSBA 
16nm SE 
061146Z 0612/0712 VRB03KT P6SM SKC FM061500 14005KT P6SM SKC FM062100 23006KT P6SM FEW250 FM070200 VRB03KT P6SM BKN250 FM070700 VRB03KT P6SM BKN008
NOTAMs
Click for the latest NOTAMs
NOTAMs are issued by the DoD/FAA and will open in a separate window not controlled by AirNav.

 

 
 

Would you like to see your business listed on this page?

 If your business provides an interesting product or service to pilots, flight crews, aircraft, or users of the Shepherd Farm Airport, you should consider listing it here.  To start the listing process, click on the button below
 
Add a business
 

Other Pages about Shepherd Farm Airport

Update a link
 
Copyright © AirNav, LLC. All rights reserved. Privacy Policy  Contact